Vreme - Novo mesto - 190m - DAVIS Vantage Pro2
Weather data: current nedelja, 18.08.2019 21:50
Date Time Temp. O. Hum. O. Baro. Rain Wind Direction Direction Wind gust
18.08.2019 21:50 21.2 C 86 % 1015.4 hPa 0.0 mm 0.0 km/h N 0 0.0 km/h
18.08.2019 20:50 23.0 C 81 % 1015.0 hPa 0.0 mm 0.0 km/h E-NE 65 3.2 km/h
18.08.2019 19:50 27.2 C 68 % 1014.4 hPa 0.0 mm 0.0 km/h E 90 1.6 km/h
18.08.2019 18:50 30.5 C 50 % 1014.5 hPa 0.0 mm 0.0 km/h NW 315 6.4 km/h
18.08.2019 17:50 30.7 C 47 % 1014.4 hPa 0.0 mm 1.6 km/h SW 225 14.5 km/h
18.08.2019 16:50 30.7 C 47 % 1014.7 hPa 0.0 mm 6.4 km/h W-SW 245 17.7 km/h
18.08.2019 15:50 30.6 C 45 % 1014.8 hPa 0.0 mm 8.0 km/h W 270 19.3 km/h
18.08.2019 14:50 30.1 C 49 % 1014.9 hPa 0.0 mm 3.2 km/h W 270 12.9 km/h
18.08.2019 13:50 29.3 C 50 % 1015.0 hPa 0.0 mm 3.2 km/h W 270 16.1 km/h
18.08.2019 12:50 28.0 C 58 % 1015.5 hPa 0.0 mm 3.2 km/h S-SW 200 16.1 km/h
18.08.2019 11:50 26.2 C 61 % 1015.8 hPa 0.0 mm 3.2 km/h S-SE 155 8.0 km/h
18.08.2019 10:50 24.6 C 61 % 1016.1 hPa 0.0 mm 3.2 km/h SW 225 11.3 km/h
18.08.2019 09:50 21.7 C 73 % 1016.4 hPa 0.0 mm 1.6 km/h S-SE 155 8.0 km/h
18.08.2019 08:50 18.8 C 81 % 1016.4 hPa 0.0 mm 0.0 km/h SW 225 6.4 km/h
18.08.2019 07:50 15.9 C 91 % 1016.2 hPa 0.0 mm 1.6 km/h SW 225 6.4 km/h
18.08.2019 06:50 14.2 C 94 % 1016.1 hPa 0.0 mm 0.0 km/h SW 225 6.4 km/h
18.08.2019 05:50 14.4 C 94 % 1016.1 hPa 0.0 mm 0.0 km/h SW 225 3.2 km/h
18.08.2019 04:50 14.8 C 93 % 1015.9 hPa 0.0 mm 1.6 km/h W-SW 245 6.4 km/h
18.08.2019 03:50 15.0 C 92 % 1016.1 hPa 0.0 mm 0.0 km/h SW 225 6.4 km/h
18.08.2019 02:50 15.4 C 92 % 1016.4 hPa 0.0 mm 0.0 km/h W-SW 245 4.8 km/h
18.08.2019 01:50 15.8 C 90 % 1016.3 hPa 0.0 mm 0.0 km/h W 270 1.6 km/h
18.08.2019 00:50 16.2 C 88 % 1016.4 hPa 0.0 mm 0.0 km/h W-SW 245 3.2 km/h
17.08.2019 23:50 17.2 C 87 % 1016.4 hPa 0.0 mm 1.6 km/h W-SW 245 4.8 km/h
17.08.2019 22:50 17.8 C 85 % 1016.1 hPa 0.0 mm 0.0 km/h W 270 1.6 km/h
17.08.2019 22:00 18.9 C 87 % 1016.1 hPa 0.0 mm 0.0 km/h N 0 0.0 km/h
_ Min-Time 06:40 15:10 19:30 - 22:00 - - 22:00
Minimum _ 14.0 C 45 % 1014.3 hPa - 0.0 km/h - - 0.0 km/h
_ Max-Time 16:40 05:20 00:20 22:00 16:10 - - 15:00
Maximum _ 30.8 C 94 % 1016.5 hPa 0.0 mm 9.7 km/h
W
- - 20.9 km/h
NW
Average _ 22.0 C 73 % 1015.6 hPa #0.0 mm 1.7 km/h SW - 7.4 km/h